createdAt,value
2022-10-04T00:01:49.202Z,5.03
2022-10-04T00:05:54.689Z,6.83
2022-10-04T00:10:03.887Z,4.73
2022-10-04T00:14:18.285Z,3.90
2022-10-04T00:18:32.949Z,4.40
2022-10-04T00:22:34.775Z,5.53
2022-10-04T00:26:39.550Z,5.00
2022-10-04T00:30:41.304Z,4.27
2022-10-04T00:34:48.797Z,6.77
2022-10-04T00:39:27.660Z,6.30
2022-10-04T00:43:44.063Z,3.93
2022-10-04T00:47:48.890Z,5.57
2022-10-04T00:51:59.331Z,3.17
2022-10-04T00:56:03.398Z,5.23
2022-10-04T01:00:22.716Z,4.83
2022-10-04T01:08:49.582Z,4.97
2022-10-04T01:13:01.041Z,7.93
2022-10-04T01:17:06.136Z,2.30
2022-10-04T01:21:20.745Z,6.30
2022-10-04T01:25:48.442Z,5.37
2022-10-04T01:29:51.776Z,5.33
2022-10-04T01:33:55.132Z,2.47
2022-10-04T01:37:56.956Z,5.23
2022-10-04T01:42:31.064Z,3.73
2022-10-04T01:46:36.330Z,2.77
2022-10-04T01:50:52.195Z,3.50
2022-10-04T01:55:22.149Z,4.77
2022-10-04T02:00:03.158Z,4.37
2022-10-04T02:04:23.382Z,4.53
2022-10-04T02:08:46.381Z,3.83
2022-10-04T02:12:56.326Z,5.43
2022-10-04T02:17:04.332Z,4.47
2022-10-04T02:21:07.363Z,5.87
2022-10-04T02:25:09.844Z,3.60
2022-10-04T02:29:11.659Z,5.50
2022-10-04T02:33:13.511Z,5.57
2022-10-04T02:37:15.435Z,4.47
2022-10-04T02:41:29.745Z,4.50
2022-10-04T02:45:41.030Z,6.43
2022-10-04T02:49:59.281Z,4.47
2022-10-04T02:54:08.042Z,5.90
2022-10-04T02:58:15.564Z,5.03
2022-10-04T03:02:30.399Z,4.37
2022-10-04T03:06:32.683Z,5.37
2022-10-04T03:10:35.518Z,4.60
2022-10-04T03:14:37.574Z,4.70
2022-10-04T03:18:39.396Z,5.93
2022-10-04T03:22:46.119Z,5.77
2022-10-04T03:26:52.869Z,6.87
2022-10-04T03:30:54.723Z,4.07
2022-10-04T03:35:04.634Z,4.97
2022-10-04T03:39:09.305Z,8.03
2022-10-04T03:43:12.905Z,4.90
2022-10-04T03:47:33.992Z,5.33
2022-10-04T03:51:36.394Z,4.33
2022-10-04T03:55:45.827Z,4.00
2022-10-04T03:59:47.859Z,8.70
2022-10-04T04:04:13.907Z,6.47
2022-10-04T04:08:34.222Z,5.67
2022-10-04T04:12:50.191Z,5.00
2022-10-04T04:16:53.752Z,4.77
2022-10-04T04:20:59.155Z,5.17
2022-10-04T04:25:02.134Z,5.33
2022-10-04T04:29:15.875Z,5.10
2022-10-04T04:33:27.185Z,7.17
2022-10-04T04:37:29.147Z,5.13
2022-10-04T04:41:31.900Z,5.07
2022-10-04T04:45:34.070Z,5.33
2022-10-04T04:49:39.814Z,4.53
2022-10-04T04:53:43.359Z,4.20
2022-10-04T04:58:41.624Z,4.03
2022-10-04T05:02:54.936Z,4.40
2022-10-04T05:07:06.369Z,7.97
2022-10-04T05:11:09.428Z,4.53
2022-10-04T05:15:11.539Z,5.37
2022-10-04T05:19:35.087Z,10.00
2022-10-04T05:23:38.289Z,5.67
2022-10-04T05:27:51.996Z,3.70
2022-10-04T05:32:26.642Z,6.77
2022-10-04T05:36:43.422Z,7.33
2022-10-04T05:41:33.372Z,5.10
2022-10-04T05:45:36.714Z,4.30
2022-10-04T05:49:46.526Z,3.30
2022-10-04T05:53:49.969Z,5.70
2022-10-04T05:58:01.452Z,6.93
2022-10-04T06:02:20.312Z,6.57
2022-10-04T06:06:43.637Z,6.60
2022-10-04T06:11:13.406Z,5.00
2022-10-04T06:15:28.598Z,4.00
2022-10-04T06:20:03.812Z,7.87
2022-10-04T06:24:12.324Z,6.67
2022-10-04T06:28:23.388Z,4.83
2022-10-04T06:32:54.491Z,6.73
2022-10-04T06:37:05.877Z,6.03
2022-10-04T06:41:38.573Z,4.90
2022-10-04T06:46:11.887Z,5.73
2022-10-04T06:50:43.916Z,4.47
2022-10-04T06:55:26.590Z,3.90
2022-10-04T07:00:03.476Z,4.90
2022-10-04T07:04:26.654Z,4.20
2022-10-04T07:08:45.044Z,5.70
2022-10-04T07:13:06.237Z,4.50
2022-10-04T07:17:19.986Z,4.53
2022-10-04T07:21:21.843Z,5.23
2022-10-04T07:25:30.805Z,6.53
2022-10-04T07:29:41.757Z,4.57
2022-10-04T07:33:48.344Z,5.93
2022-10-04T07:37:59.977Z,5.70
2022-10-04T07:42:29.523Z,6.87
2022-10-04T07:46:43.293Z,6.60
2022-10-04T07:51:34.636Z,6.17
2022-10-04T07:56:02.529Z,5.87
2022-10-04T08:00:22.418Z,5.03
2022-10-04T08:04:31.275Z,5.40
2022-10-04T08:09:20.980Z,7.20
2022-10-04T08:13:28.518Z,7.53
2022-10-04T08:18:22.757Z,4.67
2022-10-04T08:22:35.000Z,4.73
2022-10-04T08:27:08.911Z,4.63
2022-10-04T08:31:39.454Z,5.53
2022-10-04T08:36:00.361Z,7.17
2022-10-04T08:40:13.251Z,4.50
2022-10-04T08:44:34.499Z,6.93
2022-10-04T08:49:05.955Z,6.00
2022-10-04T08:53:32.638Z,6.10
2022-10-04T08:58:05.256Z,6.63
2022-10-04T09:02:41.615Z,5.80
2022-10-04T09:07:21.420Z,4.33
2022-10-04T09:12:15.468Z,5.30
2022-10-04T09:16:26.487Z,5.30
2022-10-04T09:20:59.133Z,3.60
2022-10-04T09:25:44.780Z,4.97
2022-10-04T09:30:06.520Z,5.37
2022-10-04T09:34:27.260Z,3.30
2022-10-04T09:39:01.086Z,7.30
2022-10-04T09:43:35.987Z,4.07
2022-10-04T09:48:25.826Z,3.00
2022-10-04T09:52:45.244Z,1.90
2022-10-04T09:57:43.247Z,3.73
2022-10-04T10:02:38.968Z,4.20
2022-10-04T10:07:22.406Z,3.43
2022-10-04T10:12:50.352Z,3.80
2022-10-04T10:16:53.530Z,3.03
2022-10-04T10:21:18.345Z,4.23
2022-10-04T10:26:09.400Z,2.63
2022-10-04T10:30:28.194Z,5.77
2022-10-04T10:34:42.663Z,4.83
2022-10-04T10:38:58.611Z,2.73
2022-10-04T10:43:18.484Z,2.93
2022-10-04T10:48:00.673Z,3.63
2022-10-04T10:52:39.450Z,4.90
2022-10-04T10:57:00.905Z,4.47
2022-10-04T11:01:35.225Z,3.43
2022-10-04T11:06:05.218Z,2.43
2022-10-04T11:10:26.666Z,3.80
2022-10-04T11:15:21.244Z,3.93
2022-10-04T11:20:05.527Z,3.40
2022-10-04T11:24:47.171Z,4.27
2022-10-04T11:29:10.395Z,5.00
2022-10-04T11:33:43.141Z,5.03
2022-10-04T11:38:12.159Z,4.03
2022-10-04T11:42:37.026Z,3.73
2022-10-04T11:47:34.316Z,5.87
2022-10-04T11:51:47.889Z,3.10
2022-10-04T11:56:19.439Z,3.97
2022-10-04T12:00:23.480Z,4.60
2022-10-04T12:05:32.512Z,3.73
2022-10-04T12:10:17.004Z,2.03
2022-10-04T12:14:34.393Z,2.47
2022-10-04T12:19:00.088Z,3.47
2022-10-04T12:23:29.669Z,2.23
2022-10-04T12:28:14.002Z,3.50
2022-10-04T12:32:24.658Z,4.13
2022-10-04T12:37:10.597Z,2.67
2022-10-04T12:41:51.529Z,3.87
2022-10-04T12:46:27.172Z,4.07
2022-10-04T12:51:09.388Z,2.77
2022-10-04T12:55:35.827Z,2.97
2022-10-04T13:00:14.794Z,3.93
2022-10-04T13:04:41.099Z,2.17
2022-10-04T13:09:08.588Z,2.70
2022-10-04T13:13:46.049Z,2.73
2022-10-04T13:18:14.541Z,2.63
2022-10-04T13:23:02.304Z,4.17
2022-10-04T13:27:42.091Z,3.63
2022-10-04T13:32:00.619Z,2.40
2022-10-04T13:36:11.719Z,2.93
2022-10-04T13:40:42.594Z,1.50
2022-10-04T13:45:17.570Z,3.10
2022-10-04T13:50:00.895Z,2.10
2022-10-04T13:54:31.429Z,2.93
2022-10-04T13:59:22.055Z,2.07
2022-10-04T14:04:31.350Z,3.37
2022-10-04T14:08:59.764Z,1.90
2022-10-04T14:13:19.392Z,2.67
2022-10-04T14:18:16.815Z,4.13
2022-10-04T14:22:52.040Z,3.80
2022-10-04T14:27:34.441Z,1.43
2022-10-04T14:32:09.492Z,1.63
2022-10-04T14:37:09.513Z,3.53
2022-10-04T14:46:58.360Z,1.97
2022-10-04T14:51:38.569Z,2.57
2022-10-04T14:56:06.385Z,2.13
2022-10-04T15:00:23.846Z,2.30
2022-10-04T15:04:51.429Z,2.30
2022-10-04T15:09:18.643Z,3.23
2022-10-04T15:13:55.809Z,2.57
2022-10-04T15:18:05.392Z,1.73
2022-10-04T15:22:43.573Z,2.07
2022-10-04T15:27:39.762Z,2.47
2022-10-04T15:32:48.433Z,3.90
2022-10-04T15:37:15.902Z,2.00
2022-10-04T15:41:46.099Z,2.33
2022-10-04T15:46:38.472Z,3.60
2022-10-04T15:51:31.622Z,3.00
2022-10-04T16:01:19.819Z,3.90
2022-10-04T16:06:07.780Z,4.50
2022-10-04T16:10:41.225Z,3.37
2022-10-04T16:14:52.425Z,4.07
2022-10-04T16:20:02.502Z,2.73
2022-10-04T16:24:55.339Z,4.37
2022-10-04T16:29:29.551Z,4.13
2022-10-04T16:34:20.017Z,4.10
2022-10-04T16:38:27.109Z,2.73
2022-10-04T16:43:03.333Z,3.13
2022-10-04T16:47:50.713Z,3.13
2022-10-04T16:52:13.604Z,4.37
2022-10-04T16:56:18.428Z,4.60
2022-10-04T17:01:39.397Z,4.70
2022-10-04T17:06:04.624Z,5.80
2022-10-04T17:10:56.157Z,3.33
2022-10-04T17:16:00.256Z,5.03
2022-10-04T17:27:19.947Z,4.73
2022-10-04T17:32:16.251Z,7.73
2022-10-04T18:34:50.603Z,5.60
2022-10-04T18:40:10.721Z,6.53
2022-10-04T18:45:09.016Z,6.43
2022-10-04T18:49:53.388Z,5.90
2022-10-04T18:54:44.163Z,8.50
2022-10-04T18:59:58.366Z,6.87
2022-10-04T19:04:58.858Z,7.00
2022-10-04T19:09:56.194Z,8.00
2022-10-04T19:31:32.100Z,5.27
2022-10-04T19:36:56.497Z,6.83
2022-10-04T19:42:14.222Z,7.13
2022-10-04T19:47:24.465Z,7.80
2022-10-04T19:52:11.403Z,8.33
2022-10-04T20:01:01.626Z,8.07
2022-10-04T20:11:01.097Z,7.03
2022-10-04T20:16:13.137Z,11.83
2022-10-04T20:22:07.234Z,7.97
2022-10-04T20:26:12.738Z,6.50
2022-10-04T20:30:35.150Z,5.93
2022-10-04T20:34:49.989Z,8.30
2022-10-04T20:39:26.356Z,7.43
2022-10-04T20:43:28.263Z,6.57
2022-10-04T20:47:49.697Z,7.63
2022-10-04T20:51:52.832Z,7.40
2022-10-04T21:00:58.161Z,7.57
2022-10-04T21:05:14.877Z,7.47
2022-10-04T21:09:16.742Z,4.50
2022-10-04T21:13:42.216Z,6.43
2022-10-04T21:17:58.499Z,5.80
2022-10-04T21:22:04.527Z,8.20
2022-10-04T21:26:26.137Z,7.53
2022-10-04T21:30:28.171Z,9.57
2022-10-04T21:34:53.160Z,7.27
2022-10-04T21:38:59.785Z,9.50
2022-10-04T21:43:01.923Z,8.03
2022-10-04T21:47:03.902Z,7.67
2022-10-04T21:51:05.769Z,10.03
2022-10-04T21:55:10.712Z,5.97
2022-10-04T21:59:12.701Z,7.53
2022-10-04T22:03:14.560Z,5.83
2022-10-04T22:07:16.429Z,5.33
2022-10-04T22:11:18.510Z,6.93
2022-10-04T22:15:21.930Z,8.93
2022-10-04T22:19:23.927Z,6.63
2022-10-04T22:23:28.335Z,7.30
2022-10-04T22:27:30.368Z,8.63
2022-10-04T22:31:33.348Z,6.30
2022-10-04T22:35:36.116Z,6.33
2022-10-04T22:39:38.050Z,6.83
2022-10-04T22:43:39.961Z,9.10
2022-10-04T22:47:44.251Z,8.03
2022-10-04T22:51:47.637Z,5.80
2022-10-04T22:55:50.666Z,5.40
2022-10-04T22:59:52.873Z,5.67
2022-10-04T23:03:54.792Z,7.17
2022-10-04T23:07:56.788Z,6.50
2022-10-04T23:11:58.708Z,5.67
2022-10-04T23:16:13.880Z,4.57
2022-10-04T23:20:18.684Z,4.37
2022-10-04T23:24:22.398Z,4.07
2022-10-04T23:28:24.436Z,5.17
2022-10-04T23:32:26.385Z,8.40
2022-10-04T23:36:28.196Z,6.40
2022-10-04T23:40:30.080Z,3.23
2022-10-04T23:44:35.981Z,5.13
2022-10-04T23:48:37.947Z,3.83
2022-10-04T23:52:39.819Z,4.60
2022-10-04T23:56:41.763Z,5.37
